createdAt,value
2023-05-22T00:35:52.631Z,100330.72
2023-05-22T00:43:44.560Z,100333.28
2023-05-22T00:46:21.704Z,100340.39
2023-05-22T00:49:17.949Z,100342.68
2023-05-22T00:52:41.701Z,100341.11
2023-05-22T00:55:22.503Z,100344.20
2023-05-22T00:57:57.316Z,100345.76
2023-05-22T01:00:38.166Z,100342.34
2023-05-22T01:04:25.088Z,100337.55
2023-05-22T01:07:07.890Z,100341.80
2023-05-22T01:10:21.774Z,100340.41
2023-05-22T01:17:07.451Z,100346.15
2023-05-22T01:20:19.151Z,100339.81
2023-05-22T01:23:38.944Z,100336.93
2023-05-22T01:26:57.655Z,100338.04
2023-05-22T01:29:48.773Z,100338.48
2023-05-22T01:32:30.473Z,100346.50
2023-05-22T01:35:15.359Z,100346.41
2023-05-22T01:37:59.535Z,100345.24
2023-05-22T01:40:39.658Z,100349.38
2023-05-22T01:43:39.645Z,100352.79
2023-05-22T01:46:39.321Z,100347.20
2023-05-22T01:49:25.788Z,100347.79
2023-05-22T01:52:35.268Z,100347.61
2023-05-22T01:55:37.960Z,100330.83
2023-05-22T01:58:50.893Z,100338.77
2023-05-22T02:01:35.978Z,100342.77
2023-05-22T02:04:41.111Z,100345.39
2023-05-22T02:07:21.526Z,100344.69
2023-05-22T02:09:58.422Z,100344.23
2023-05-22T02:12:40.825Z,100342.85
2023-05-22T02:15:27.018Z,100347.51
2023-05-22T02:18:09.099Z,100344.27
2023-05-22T02:20:42.438Z,100344.64
2023-05-22T02:23:12.642Z,100342.35
2023-05-22T02:26:12.362Z,100345.10
2023-05-22T02:28:50.239Z,100344.91
2023-05-22T02:31:29.762Z,100344.98
2023-05-22T02:34:10.990Z,100344.77
2023-05-22T02:36:51.013Z,100350.35
2023-05-22T02:43:22.981Z,100345.34
2023-05-22T02:47:14.151Z,100344.08
2023-05-22T02:49:51.724Z,100344.09
2023-05-22T02:52:59.550Z,100342.25
2023-05-22T02:56:24.420Z,100343.60
2023-05-22T02:59:18.100Z,100338.41
2023-05-22T03:01:54.105Z,100338.27
2023-05-22T03:04:58.238Z,100339.45
2023-05-22T03:08:33.092Z,100337.04
2023-05-22T03:11:34.953Z,100331.00
2023-05-22T03:14:17.185Z,100334.95
2023-05-22T03:17:40.698Z,100333.02
2023-05-22T03:20:40.111Z,100328.20
2023-05-22T03:24:11.249Z,100324.34
2023-05-22T03:27:07.101Z,100319.90
2023-05-22T03:30:25.377Z,100320.38
2023-05-22T03:34:06.261Z,100315.58
2023-05-22T03:36:52.026Z,100315.21
2023-05-22T03:39:28.490Z,100317.98
2023-05-22T03:42:09.113Z,100316.29
2023-05-22T03:45:32.231Z,100316.52
2023-05-22T03:48:16.904Z,100318.30
2023-05-22T03:51:32.497Z,100320.24
2023-05-22T03:54:07.393Z,100318.53
2023-05-22T03:56:56.655Z,100320.46
2023-05-22T03:59:46.858Z,100319.69
2023-05-22T04:02:47.046Z,100318.00
2023-05-22T04:05:45.513Z,100312.27
2023-05-22T04:08:31.151Z,100319.26
2023-05-22T04:11:10.791Z,100315.81
2023-05-22T04:13:52.727Z,100311.19
2023-05-22T04:16:31.305Z,100316.91
2023-05-22T04:19:30.345Z,100313.72
2023-05-22T04:22:33.825Z,100311.48
2023-05-22T04:25:57.662Z,100308.17
2023-05-22T04:28:39.945Z,100310.15
2023-05-22T04:31:17.242Z,100304.40
2023-05-22T04:33:56.099Z,100311.67
2023-05-22T04:36:32.484Z,100307.16
2023-05-22T04:39:25.670Z,100308.98
2023-05-22T04:42:21.048Z,100311.08
2023-05-22T04:44:57.562Z,100311.98
2023-05-22T04:47:52.560Z,100317.43
2023-05-22T04:50:38.526Z,100313.45
2023-05-22T04:53:33.153Z,100317.05
2023-05-22T04:59:08.440Z,100316.34
2023-05-22T05:01:45.627Z,100317.86
2023-05-22T05:04:34.462Z,100315.85
2023-05-22T05:07:32.340Z,100313.77
2023-05-22T05:10:49.805Z,100306.95
2023-05-22T05:13:45.870Z,100310.35
2023-05-22T05:16:28.754Z,100309.96
2023-05-22T05:19:42.356Z,100307.84
2023-05-22T05:22:23.811Z,100310.05
2023-05-22T05:24:59.599Z,100307.54
2023-05-22T05:27:53.143Z,100306.08
2023-05-22T05:30:30.897Z,100307.88
2023-05-22T05:34:17.515Z,100304.71
2023-05-22T05:37:10.076Z,100306.16
2023-05-22T05:39:55.114Z,100305.45
2023-05-22T05:42:29.846Z,100308.05
2023-05-22T05:45:23.826Z,100302.30
2023-05-22T05:48:06.669Z,100301.48
2023-05-22T05:51:16.025Z,100303.42
2023-05-22T05:54:18.962Z,100301.13
2023-05-22T05:56:59.009Z,100303.08
2023-05-22T05:59:35.112Z,100306.19
2023-05-22T06:02:49.654Z,100307.16
2023-05-22T06:05:46.398Z,100302.10
2023-05-22T06:09:51.834Z,100298.50
2023-05-22T06:13:10.521Z,100298.58
2023-05-22T06:15:52.669Z,100300.08
2023-05-22T06:18:41.243Z,100301.08
2023-05-22T06:21:39.815Z,100296.27
2023-05-22T06:25:34.677Z,100296.27
2023-05-22T06:28:23.651Z,100294.13
2023-05-22T06:31:19.498Z,100298.08
2023-05-22T06:34:14.587Z,100292.98
2023-05-22T06:37:00.440Z,100296.27
2023-05-22T06:40:15.585Z,100292.91
2023-05-22T06:54:07.828Z,100284.67
2023-05-22T07:56:58.477Z,100279.20
2023-05-22T08:04:11.367Z,100275.36
2023-05-22T08:11:04.001Z,100276.92
2023-05-22T08:14:40.545Z,100281.05
2023-05-22T08:17:23.726Z,100277.00
2023-05-22T08:20:06.873Z,100274.29
2023-05-22T08:23:21.012Z,100275.39
2023-05-22T08:26:28.104Z,100260.45
2023-05-22T08:58:10.591Z,100273.10
2023-05-22T09:21:47.052Z,100267.19
2023-05-22T09:27:58.904Z,100261.30
2023-05-22T09:44:26.490Z,100252.89
2023-05-22T09:47:39.652Z,100251.45
2023-05-22T09:51:30.665Z,100254.30
2023-05-22T09:57:45.706Z,100251.91
2023-05-22T10:00:58.651Z,100249.29
2023-05-22T10:04:18.217Z,100245.04
2023-05-22T10:07:11.167Z,100243.71
2023-05-22T10:10:56.508Z,100232.56
2023-05-22T10:14:26.633Z,100237.33
2023-05-22T10:18:04.159Z,100234.20
2023-05-22T10:35:09.056Z,100211.61
2023-05-22T10:48:54.783Z,100198.30
2023-05-22T11:09:58.554Z,100187.91
2023-05-22T12:18:24.538Z,100133.95
2023-05-22T12:27:55.254Z,100137.64
2023-05-22T12:31:51.183Z,100131.75
2023-05-22T12:42:57.438Z,100138.42
2023-05-22T13:08:07.458Z,100106.64
2023-05-22T13:11:15.077Z,100107.17
2023-05-22T13:18:27.790Z,100086.91
2023-05-22T13:26:58.293Z,100091.98
2023-05-22T13:45:14.638Z,100090.60
2023-05-22T13:48:26.502Z,100080.47
2023-05-22T13:55:37.328Z,100076.38
2023-05-22T13:59:51.888Z,100081.08
2023-05-22T14:15:15.745Z,100093.42
2023-05-22T14:25:23.857Z,100082.38
2023-05-22T14:44:28.058Z,100080.52
2023-05-22T14:51:03.610Z,100067.84
2023-05-22T14:53:52.178Z,100068.17
2023-05-22T14:57:16.603Z,100062.20
2023-05-22T15:24:09.105Z,100057.01
2023-05-22T15:45:40.864Z,100048.60
2023-05-22T15:48:14.429Z,100042.02
2023-05-22T15:51:01.089Z,100048.63
2023-05-22T15:54:14.208Z,100049.21
2023-05-22T16:01:10.491Z,100049.45
2023-05-22T16:04:19.489Z,100054.14
2023-05-22T17:15:43.562Z,100101.65
2023-05-22T18:07:18.607Z,100100.59
2023-05-22T18:46:40.855Z,100099.97
2023-05-22T20:03:56.515Z,100074.76
2023-05-22T20:07:24.730Z,100074.83
2023-05-22T20:15:26.364Z,100078.01
2023-05-22T20:28:17.927Z,100080.25
2023-05-22T20:35:54.630Z,100087.45
2023-05-22T20:38:50.821Z,100092.46
2023-05-22T20:42:46.876Z,100090.27
2023-05-22T20:50:02.946Z,100092.69
2023-05-22T21:02:19.120Z,100086.12
2023-05-22T21:06:26.018Z,100083.62
2023-05-22T21:13:21.681Z,100080.70
2023-05-22T21:17:16.482Z,100083.03
2023-05-22T21:25:26.985Z,100099.97
2023-05-22T21:28:12.149Z,100097.09
2023-05-22T21:35:53.355Z,100103.89
2023-05-22T21:43:09.765Z,100100.84
2023-05-22T21:46:12.994Z,100101.05
2023-05-22T21:49:13.411Z,100100.54
2023-05-22T22:02:08.066Z,100088.65
2023-05-22T22:04:41.705Z,100080.57
2023-05-22T22:13:00.647Z,100076.97
2023-05-22T22:16:12.334Z,100072.61
2023-05-22T22:18:51.192Z,100071.37
2023-05-22T22:21:34.643Z,100073.95
2023-05-22T22:32:51.395Z,100079.84
2023-05-22T22:35:28.847Z,100087.45
2023-05-22T22:38:56.192Z,100085.40
2023-05-22T22:42:08.596Z,100084.24
2023-05-22T22:45:43.279Z,100077.50
2023-05-22T22:48:34.024Z,100081.40
2023-05-22T22:55:17.615Z,100069.23
2023-05-22T22:58:52.021Z,100069.20
2023-05-22T23:02:07.768Z,100068.10
2023-05-22T23:05:35.953Z,100062.91
2023-05-22T23:14:27.754Z,100058.17
2023-05-22T23:18:29.752Z,100057.80
2023-05-22T23:21:37.172Z,100055.21
2023-05-22T23:24:14.225Z,100051.16
2023-05-22T23:27:22.454Z,100047.58
2023-05-22T23:30:47.510Z,100048.84
2023-05-22T23:38:17.862Z,100046.96
2023-05-22T23:47:59.593Z,100040.28
2023-05-22T23:51:18.236Z,100041.99
2023-05-22T23:59:15.621Z,100045.31
